sensor_id;sensor_type;location;lat;lon;timestamp;P1;durP1;ratioP1;P2;durP2;ratioP2
71513;SDS011;59335;46.652;21.272;2023-11-21T00:01:59;8.75;;;4.13;;
71513;SDS011;59335;46.652;21.272;2023-11-21T00:05:03;7.50;;;3.95;;
71513;SDS011;59335;46.652;21.272;2023-11-21T00:08:06;8.32;;;3.78;;
71513;SDS011;59335;46.652;21.272;2023-11-21T00:11:09;7.07;;;3.63;;
71513;SDS011;59335;46.652;21.272;2023-11-21T00:14:12;7.97;;;4.20;;
71513;SDS011;59335;46.652;21.272;2023-11-21T00:17:17;7.32;;;3.90;;
71513;SDS011;59335;46.652;21.272;2023-11-21T00:20:20;9.57;;;4.13;;
71513;SDS011;59335;46.652;21.272;2023-11-21T00:23:23;7.75;;;4.05;;
71513;SDS011;59335;46.652;21.272;2023-11-21T00:26:26;8.60;;;4.07;;
71513;SDS011;59335;46.652;21.272;2023-11-21T00:29:36;8.23;;;4.17;;
71513;SDS011;59335;46.652;21.272;2023-11-21T00:32:39;9.25;;;4.10;;
71513;SDS011;59335;46.652;21.272;2023-11-21T00:35:42;7.55;;;3.60;;
71513;SDS011;59335;46.652;21.272;2023-11-21T00:38:45;10.10;;;3.90;;
71513;SDS011;59335;46.652;21.272;2023-11-21T00:41:49;8.98;;;4.50;;
71513;SDS011;59335;46.652;21.272;2023-11-21T00:44:53;7.90;;;3.80;;
71513;SDS011;59335;46.652;21.272;2023-11-21T00:47:56;7.85;;;4.47;;
71513;SDS011;59335;46.652;21.272;2023-11-21T00:51:01;10.75;;;4.57;;
71513;SDS011;59335;46.652;21.272;2023-11-21T00:54:04;8.90;;;4.28;;
71513;SDS011;59335;46.652;21.272;2023-11-21T00:57:09;8.95;;;4.15;;
71513;SDS011;59335;46.652;21.272;2023-11-21T01:00:14;7.27;;;3.83;;
71513;SDS011;59335;46.652;21.272;2023-11-21T01:03:19;8.27;;;4.25;;
71513;SDS011;59335;46.652;21.272;2023-11-21T01:06:23;7.82;;;4.03;;
71513;SDS011;59335;46.652;21.272;2023-11-21T01:09:26;8.07;;;3.97;;
71513;SDS011;59335;46.652;21.272;2023-11-21T01:12:30;9.00;;;4.13;;
71513;SDS011;59335;46.652;21.272;2023-11-21T01:15:34;7.63;;;3.90;;
71513;SDS011;59335;46.652;21.272;2023-11-21T01:18:36;6.72;;;3.78;;
71513;SDS011;59335;46.652;21.272;2023-11-21T01:21:41;7.20;;;3.80;;
71513;SDS011;59335;46.652;21.272;2023-11-21T01:24:44;9.50;;;4.18;;
71513;SDS011;59335;46.652;21.272;2023-11-21T01:27:47;6.75;;;3.88;;
71513;SDS011;59335;46.652;21.272;2023-11-21T01:30:50;7.37;;;4.00;;
71513;SDS011;59335;46.652;21.272;2023-11-21T01:33:54;8.32;;;4.50;;
71513;SDS011;59335;46.652;21.272;2023-11-21T01:36:57;7.97;;;4.30;;
71513;SDS011;59335;46.652;21.272;2023-11-21T01:40:00;7.40;;;3.65;;
71513;SDS011;59335;46.652;21.272;2023-11-21T01:43:04;9.60;;;3.88;;
71513;SDS011;59335;46.652;21.272;2023-11-21T01:46:08;8.47;;;3.80;;
71513;SDS011;59335;46.652;21.272;2023-11-21T01:49:11;8.80;;;4.55;;
71513;SDS011;59335;46.652;21.272;2023-11-21T01:52:17;7.97;;;3.92;;
71513;SDS011;59335;46.652;21.272;2023-11-21T01:55:20;7.88;;;4.03;;
71513;SDS011;59335;46.652;21.272;2023-11-21T01:58:30;7.90;;;3.95;;
71513;SDS011;59335;46.652;21.272;2023-11-21T02:01:34;8.63;;;4.20;;
71513;SDS011;59335;46.652;21.272;2023-11-21T02:04:38;8.65;;;4.10;;
71513;SDS011;59335;46.652;21.272;2023-11-21T02:07:41;7.45;;;3.88;;
71513;SDS011;59335;46.652;21.272;2023-11-21T02:10:45;8.15;;;4.20;;
71513;SDS011;59335;46.652;21.272;2023-11-21T02:13:48;8.57;;;4.00;;
71513;SDS011;59335;46.652;21.272;2023-11-21T02:16:52;7.87;;;3.97;;
71513;SDS011;59335;46.652;21.272;2023-11-21T02:19:56;7.78;;;3.80;;
71513;SDS011;59335;46.652;21.272;2023-11-21T02:22:59;7.85;;;3.95;;
71513;SDS011;59335;46.652;21.272;2023-11-21T02:26:03;8.10;;;4.18;;
71513;SDS011;59335;46.652;21.272;2023-11-21T02:29:06;7.65;;;4.05;;
71513;SDS011;59335;46.652;21.272;2023-11-21T02:32:13;7.10;;;3.70;;
71513;SDS011;59335;46.652;21.272;2023-11-21T02:35:17;8.07;;;4.00;;
71513;SDS011;59335;46.652;21.272;2023-11-21T02:38:23;6.63;;;3.45;;
71513;SDS011;59335;46.652;21.272;2023-11-21T02:41:26;7.72;;;3.92;;
71513;SDS011;59335;46.652;21.272;2023-11-21T02:44:28;7.40;;;4.00;;
71513;SDS011;59335;46.652;21.272;2023-11-21T02:47:31;7.00;;;3.97;;
71513;SDS011;59335;46.652;21.272;2023-11-21T02:50:34;7.75;;;4.22;;
71513;SDS011;59335;46.652;21.272;2023-11-21T02:53:37;7.53;;;4.05;;
71513;SDS011;59335;46.652;21.272;2023-11-21T02:56:41;8.05;;;4.10;;
71513;SDS011;59335;46.652;21.272;2023-11-21T02:59:44;8.90;;;4.22;;
71513;SDS011;59335;46.652;21.272;2023-11-21T03:02:47;7.40;;;4.13;;
71513;SDS011;59335;46.652;21.272;2023-11-21T03:05:50;9.80;;;4.32;;
71513;SDS011;59335;46.652;21.272;2023-11-21T03:08:53;8.55;;;3.97;;
71513;SDS011;59335;46.652;21.272;2023-11-21T03:11:56;9.15;;;4.07;;
71513;SDS011;59335;46.652;21.272;2023-11-21T03:14:58;8.88;;;4.22;;
71513;SDS011;59335;46.652;21.272;2023-11-21T03:18:02;8.70;;;4.40;;
71513;SDS011;59335;46.652;21.272;2023-11-21T03:21:05;8.35;;;4.10;;
71513;SDS011;59335;46.652;21.272;2023-11-21T03:24:11;7.43;;;3.80;;
71513;SDS011;59335;46.652;21.272;2023-11-21T03:27:13;8.48;;;4.18;;
71513;SDS011;59335;46.652;21.272;2023-11-21T03:30:16;8.57;;;4.10;;
71513;SDS011;59335;46.652;21.272;2023-11-21T03:33:19;8.13;;;4.30;;
71513;SDS011;59335;46.652;21.272;2023-11-21T03:36:22;8.27;;;4.03;;
71513;SDS011;59335;46.652;21.272;2023-11-21T03:39:28;8.02;;;4.00;;
71513;SDS011;59335;46.652;21.272;2023-11-21T03:42:31;8.63;;;4.20;;
71513;SDS011;59335;46.652;21.272;2023-11-21T03:45:34;7.50;;;4.30;;
71513;SDS011;59335;46.652;21.272;2023-11-21T03:48:38;8.73;;;4.50;;
71513;SDS011;59335;46.652;21.272;2023-11-21T03:51:41;6.93;;;4.15;;
71513;SDS011;59335;46.652;21.272;2023-11-21T03:54:43;7.55;;;4.13;;
71513;SDS011;59335;46.652;21.272;2023-11-21T03:57:46;8.50;;;4.55;;
71513;SDS011;59335;46.652;21.272;2023-11-21T04:00:49;7.32;;;3.70;;
71513;SDS011;59335;46.652;21.272;2023-11-21T04:03:52;7.53;;;4.13;;
71513;SDS011;59335;46.652;21.272;2023-11-21T04:06:55;8.57;;;4.70;;
71513;SDS011;59335;46.652;21.272;2023-11-21T04:09:59;7.40;;;4.20;;
71513;SDS011;59335;46.652;21.272;2023-11-21T04:13:02;7.05;;;4.10;;
71513;SDS011;59335;46.652;21.272;2023-11-21T04:16:05;8.38;;;4.30;;
71513;SDS011;59335;46.652;21.272;2023-11-21T04:19:10;6.97;;;4.17;;
71513;SDS011;59335;46.652;21.272;2023-11-21T04:22:13;9.35;;;4.10;;
71513;SDS011;59335;46.652;21.272;2023-11-21T04:25:15;8.43;;;4.25;;
71513;SDS011;59335;46.652;21.272;2023-11-21T04:28:19;7.10;;;4.18;;
71513;SDS011;59335;46.652;21.272;2023-11-21T04:31:22;7.20;;;4.18;;
71513;SDS011;59335;46.652;21.272;2023-11-21T04:34:25;7.17;;;4.37;;
71513;SDS011;59335;46.652;21.272;2023-11-21T04:37:27;8.52;;;4.45;;
71513;SDS011;59335;46.652;21.272;2023-11-21T04:40:30;8.27;;;4.60;;
71513;SDS011;59335;46.652;21.272;2023-11-21T04:43:34;7.97;;;4.53;;
71513;SDS011;59335;46.652;21.272;2023-11-21T04:46:37;7.22;;;4.30;;
71513;SDS011;59335;46.652;21.272;2023-11-21T04:49:42;7.90;;;4.50;;
71513;SDS011;59335;46.652;21.272;2023-11-21T04:52:46;8.07;;;4.03;;
71513;SDS011;59335;46.652;21.272;2023-11-21T04:55:49;7.85;;;4.28;;
71513;SDS011;59335;46.652;21.272;2023-11-21T04:58:53;9.50;;;4.57;;
71513;SDS011;59335;46.652;21.272;2023-11-21T05:01:56;7.35;;;4.32;;
71513;SDS011;59335;46.652;21.272;2023-11-21T05:04:59;8.40;;;4.20;;
71513;SDS011;59335;46.652;21.272;2023-11-21T05:08:05;7.43;;;4.22;;
71513;SDS011;59335;46.652;21.272;2023-11-21T05:11:08;7.40;;;4.07;;
71513;SDS011;59335;46.652;21.272;2023-11-21T05:14:13;8.57;;;4.30;;
71513;SDS011;59335;46.652;21.272;2023-11-21T05:17:16;7.85;;;4.25;;
71513;SDS011;59335;46.652;21.272;2023-11-21T05:20:19;7.33;;;3.87;;
71513;SDS011;59335;46.652;21.272;2023-11-21T05:23:23;7.55;;;4.43;;
71513;SDS011;59335;46.652;21.272;2023-11-21T05:26:27;7.47;;;4.00;;
71513;SDS011;59335;46.652;21.272;2023-11-21T05:29:30;7.15;;;4.20;;
71513;SDS011;59335;46.652;21.272;2023-11-21T05:32:32;7.30;;;3.85;;
71513;SDS011;59335;46.652;21.272;2023-11-21T05:35:36;8.80;;;4.47;;
71513;SDS011;59335;46.652;21.272;2023-11-21T05:38:39;7.55;;;4.38;;
71513;SDS011;59335;46.652;21.272;2023-11-21T05:41:41;7.68;;;4.38;;
71513;SDS011;59335;46.652;21.272;2023-11-21T05:44:45;6.75;;;4.07;;
71513;SDS011;59335;46.652;21.272;2023-11-21T05:47:48;8.15;;;4.20;;
71513;SDS011;59335;46.652;21.272;2023-11-21T05:50:50;8.27;;;4.47;;
71513;SDS011;59335;46.652;21.272;2023-11-21T05:53:53;9.20;;;4.47;;
71513;SDS011;59335;46.652;21.272;2023-11-21T05:56:55;8.85;;;4.70;;
71513;SDS011;59335;46.652;21.272;2023-11-21T05:59:58;7.68;;;4.68;;
71513;SDS011;59335;46.652;21.272;2023-11-21T06:03:01;7.57;;;4.57;;
71513;SDS011;59335;46.652;21.272;2023-11-21T06:06:05;7.83;;;4.27;;
71513;SDS011;59335;46.652;21.272;2023-11-21T06:09:09;8.25;;;4.63;;
71513;SDS011;59335;46.652;21.272;2023-11-21T06:12:14;8.27;;;4.70;;
71513;SDS011;59335;46.652;21.272;2023-11-21T06:15:18;11.57;;;4.78;;
71513;SDS011;59335;46.652;21.272;2023-11-21T06:18:25;8.30;;;4.38;;
71513;SDS011;59335;46.652;21.272;2023-11-21T06:21:28;8.03;;;4.60;;
71513;SDS011;59335;46.652;21.272;2023-11-21T06:24:32;8.13;;;4.20;;
71513;SDS011;59335;46.652;21.272;2023-11-21T06:27:36;9.05;;;4.68;;
71513;SDS011;59335;46.652;21.272;2023-11-21T06:30:40;8.68;;;4.55;;
71513;SDS011;59335;46.652;21.272;2023-11-21T06:33:44;8.98;;;4.40;;
71513;SDS011;59335;46.652;21.272;2023-11-21T06:36:47;10.07;;;5.40;;
71513;SDS011;59335;46.652;21.272;2023-11-21T06:39:50;8.07;;;4.68;;
71513;SDS011;59335;46.652;21.272;2023-11-21T06:42:54;9.40;;;4.88;;
71513;SDS011;59335;46.652;21.272;2023-11-21T06:45:57;8.90;;;4.95;;
71513;SDS011;59335;46.652;21.272;2023-11-21T06:49:00;8.32;;;5.13;;
71513;SDS011;59335;46.652;21.272;2023-11-21T06:52:03;16.13;;;8.40;;
71513;SDS011;59335;46.652;21.272;2023-11-21T06:55:06;18.55;;;11.25;;
71513;SDS011;59335;46.652;21.272;2023-11-21T06:58:11;14.27;;;9.38;;
71513;SDS011;59335;46.652;21.272;2023-11-21T07:01:14;13.45;;;7.82;;
71513;SDS011;59335;46.652;21.272;2023-11-21T07:04:17;13.07;;;7.28;;
71513;SDS011;59335;46.652;21.272;2023-11-21T07:07:22;13.43;;;6.70;;
71513;SDS011;59335;46.652;21.272;2023-11-21T07:10:39;10.98;;;6.65;;
71513;SDS011;59335;46.652;21.272;2023-11-21T07:13:45;17.23;;;6.47;;
71513;SDS011;59335;46.652;21.272;2023-11-21T07:16:48;12.52;;;6.50;;
71513;SDS011;59335;46.652;21.272;2023-11-21T07:19:52;12.07;;;6.07;;
71513;SDS011;59335;46.652;21.272;2023-11-21T07:22:55;11.17;;;6.27;;
71513;SDS011;59335;46.652;21.272;2023-11-21T07:26:00;13.68;;;6.65;;
71513;SDS011;59335;46.652;21.272;2023-11-21T07:29:03;11.95;;;6.30;;
71513;SDS011;59335;46.652;21.272;2023-11-21T07:32:06;10.18;;;6.25;;
71513;SDS011;59335;46.652;21.272;2023-11-21T07:35:15;11.13;;;6.70;;
71513;SDS011;59335;46.652;21.272;2023-11-21T07:38:18;11.93;;;6.30;;
71513;SDS011;59335;46.652;21.272;2023-11-21T07:41:21;10.43;;;6.35;;
71513;SDS011;59335;46.652;21.272;2023-11-21T07:44:32;12.50;;;5.97;;
71513;SDS011;59335;46.652;21.272;2023-11-21T07:47:36;10.88;;;5.90;;
71513;SDS011;59335;46.652;21.272;2023-11-21T07:50:39;10.98;;;6.30;;
71513;SDS011;59335;46.652;21.272;2023-11-21T07:53:43;13.03;;;6.33;;
71513;SDS011;59335;46.652;21.272;2023-11-21T07:56:49;13.02;;;6.35;;
71513;SDS011;59335;46.652;21.272;2023-11-21T07:59:52;11.18;;;5.97;;
71513;SDS011;59335;46.652;21.272;2023-11-21T08:03:00;11.40;;;6.47;;
71513;SDS011;59335;46.652;21.272;2023-11-21T08:06:03;11.80;;;5.85;;
71513;SDS011;59335;46.652;21.272;2023-11-21T08:09:08;13.83;;;6.23;;
71513;SDS011;59335;46.652;21.272;2023-11-21T08:12:12;17.67;;;6.40;;
71513;SDS011;59335;46.652;21.272;2023-11-21T08:15:40;13.38;;;6.60;;
71513;SDS011;59335;46.652;21.272;2023-11-21T08:18:50;13.40;;;5.65;;
71513;SDS011;59335;46.652;21.272;2023-11-21T08:21:53;12.45;;;6.28;;
71513;SDS011;59335;46.652;21.272;2023-11-21T08:25:01;10.10;;;5.70;;
71513;SDS011;59335;46.652;21.272;2023-11-21T08:28:06;14.18;;;5.95;;
71513;SDS011;59335;46.652;21.272;2023-11-21T08:31:10;13.30;;;6.00;;
71513;SDS011;59335;46.652;21.272;2023-11-21T08:34:15;12.38;;;5.80;;
71513;SDS011;59335;46.652;21.272;2023-11-21T08:37:18;12.00;;;5.97;;
71513;SDS011;59335;46.652;21.272;2023-11-21T08:40:25;11.70;;;6.13;;
71513;SDS011;59335;46.652;21.272;2023-11-21T08:43:28;9.15;;;5.85;;
71513;SDS011;59335;46.652;21.272;2023-11-21T08:46:33;13.27;;;6.10;;
71513;SDS011;59335;46.652;21.272;2023-11-21T08:49:36;10.85;;;5.80;;
71513;SDS011;59335;46.652;21.272;2023-11-21T08:52:40;11.55;;;6.10;;
71513;SDS011;59335;46.652;21.272;2023-11-21T08:55:44;11.70;;;6.17;;
71513;SDS011;59335;46.652;21.272;2023-11-21T08:58:48;14.25;;;5.65;;
71513;SDS011;59335;46.652;21.272;2023-11-21T09:02:02;12.77;;;5.72;;
71513;SDS011;59335;46.652;21.272;2023-11-21T09:05:19;17.60;;;8.00;;
71513;SDS011;59335;46.652;21.272;2023-11-21T09:08:28;13.25;;;7.55;;
71513;SDS011;59335;46.652;21.272;2023-11-21T09:11:32;12.93;;;6.30;;
71513;SDS011;59335;46.652;21.272;2023-11-21T09:14:39;14.10;;;6.32;;
71513;SDS011;59335;46.652;21.272;2023-11-21T09:17:42;15.68;;;6.07;;
71513;SDS011;59335;46.652;21.272;2023-11-21T09:20:48;12.73;;;5.82;;
71513;SDS011;59335;46.652;21.272;2023-11-21T09:23:52;12.23;;;6.07;;
71513;SDS011;59335;46.652;21.272;2023-11-21T09:26:57;10.73;;;5.93;;
71513;SDS011;59335;46.652;21.272;2023-11-21T09:30:00;11.07;;;5.93;;
71513;SDS011;59335;46.652;21.272;2023-11-21T09:33:03;13.70;;;6.18;;
71513;SDS011;59335;46.652;21.272;2023-11-21T09:36:13;11.88;;;6.38;;
71513;SDS011;59335;46.652;21.272;2023-11-21T09:39:17;12.95;;;5.80;;
71513;SDS011;59335;46.652;21.272;2023-11-21T09:42:25;10.97;;;6.60;;
71513;SDS011;59335;46.652;21.272;2023-11-21T09:45:35;12.27;;;6.25;;
71513;SDS011;59335;46.652;21.272;2023-11-21T09:48:40;11.70;;;6.35;;
71513;SDS011;59335;46.652;21.272;2023-11-21T09:51:44;12.75;;;5.57;;
71513;SDS011;59335;46.652;21.272;2023-11-21T09:54:50;14.25;;;6.15;;
71513;SDS011;59335;46.652;21.272;2023-11-21T09:57:57;13.47;;;5.90;;
71513;SDS011;59335;46.652;21.272;2023-11-21T10:01:00;18.17;;;6.28;;
71513;SDS011;59335;46.652;21.272;2023-11-21T10:04:05;11.90;;;5.85;;
71513;SDS011;59335;46.652;21.272;2023-11-21T10:07:14;20.67;;;6.38;;
71513;SDS011;59335;46.652;21.272;2023-11-21T10:10:27;13.88;;;6.25;;
71513;SDS011;59335;46.652;21.272;2023-11-21T10:13:32;15.33;;;6.00;;
71513;SDS011;59335;46.652;21.272;2023-11-21T10:16:36;17.10;;;5.95;;
71513;SDS011;59335;46.652;21.272;2023-11-21T10:19:40;15.90;;;5.93;;
71513;SDS011;59335;46.652;21.272;2023-11-21T10:22:51;12.90;;;5.78;;
71513;SDS011;59335;46.652;21.272;2023-11-21T10:25:55;10.05;;;6.00;;
71513;SDS011;59335;46.652;21.272;2023-11-21T10:29:12;12.67;;;6.07;;
71513;SDS011;59335;46.652;21.272;2023-11-21T10:32:19;13.38;;;5.53;;
71513;SDS011;59335;46.652;21.272;2023-11-21T10:35:22;14.60;;;5.47;;
71513;SDS011;59335;46.652;21.272;2023-11-21T10:38:28;11.85;;;5.57;;
71513;SDS011;59335;46.652;21.272;2023-11-21T10:41:40;14.32;;;5.90;;
71513;SDS011;59335;46.652;21.272;2023-11-21T10:44:45;14.20;;;6.00;;
71513;SDS011;59335;46.652;21.272;2023-11-21T10:47:48;13.40;;;5.72;;
71513;SDS011;59335;46.652;21.272;2023-11-21T10:50:54;11.45;;;6.18;;
71513;SDS011;59335;46.652;21.272;2023-11-21T10:53:59;11.10;;;6.25;;
71513;SDS011;59335;46.652;21.272;2023-11-21T10:57:03;14.60;;;6.22;;
71513;SDS011;59335;46.652;21.272;2023-11-21T11:00:07;12.27;;;5.57;;
71513;SDS011;59335;46.652;21.272;2023-11-21T11:03:16;15.27;;;6.05;;
71513;SDS011;59335;46.652;21.272;2023-11-21T11:06:21;13.95;;;5.90;;
71513;SDS011;59335;46.652;21.272;2023-11-21T11:09:28;16.52;;;6.55;;
71513;SDS011;59335;46.652;21.272;2023-11-21T11:12:41;12.82;;;5.60;;
71513;SDS011;59335;46.652;21.272;2023-11-21T11:15:47;12.13;;;5.80;;
71513;SDS011;59335;46.652;21.272;2023-11-21T11:18:51;12.60;;;5.80;;
71513;SDS011;59335;46.652;21.272;2023-11-21T11:28:43;11.15;;;5.47;;
71513;SDS011;59335;46.652;21.272;2023-11-21T11:38:31;11.52;;;5.55;;
71513;SDS011;59335;46.652;21.272;2023-11-21T11:41:38;11.13;;;6.10;;
71513;SDS011;59335;46.652;21.272;2023-11-21T11:47:56;11.60;;;5.90;;
71513;SDS011;59335;46.652;21.272;2023-11-21T11:51:12;19.80;;;6.47;;
71513;SDS011;59335;46.652;21.272;2023-11-21T11:54:35;15.15;;;5.95;;
71513;SDS011;59335;46.652;21.272;2023-11-21T11:57:41;12.00;;;5.40;;
71513;SDS011;59335;46.652;21.272;2023-11-21T12:00:45;15.77;;;6.03;;
71513;SDS011;59335;46.652;21.272;2023-11-21T12:07:48;11.27;;;5.85;;
71513;SDS011;59335;46.652;21.272;2023-11-21T12:10:54;16.13;;;6.00;;
71513;SDS011;59335;46.652;21.272;2023-11-21T12:13:57;15.50;;;6.55;;
71513;SDS011;59335;46.652;21.272;2023-11-21T12:17:04;21.08;;;6.40;;
71513;SDS011;59335;46.652;21.272;2023-11-21T12:20:07;15.87;;;6.17;;
71513;SDS011;59335;46.652;21.272;2023-11-21T12:23:17;13.55;;;6.25;;
71513;SDS011;59335;46.652;21.272;2023-11-21T12:26:22;17.77;;;6.57;;
71513;SDS011;59335;46.652;21.272;2023-11-21T12:29:26;16.88;;;5.90;;
71513;SDS011;59335;46.652;21.272;2023-11-21T12:32:32;16.85;;;6.25;;
71513;SDS011;59335;46.652;21.272;2023-11-21T12:35:38;16.00;;;5.83;;
71513;SDS011;59335;46.652;21.272;2023-11-21T12:38:41;13.32;;;5.45;;
71513;SDS011;59335;46.652;21.272;2023-11-21T12:41:44;12.23;;;5.43;;
71513;SDS011;59335;46.652;21.272;2023-11-21T12:44:47;15.77;;;6.20;;
71513;SDS011;59335;46.652;21.272;2023-11-21T12:47:51;15.55;;;6.45;;
71513;SDS011;59335;46.652;21.272;2023-11-21T12:50:55;15.73;;;6.53;;
71513;SDS011;59335;46.652;21.272;2023-11-21T12:53:58;17.38;;;6.35;;
71513;SDS011;59335;46.652;21.272;2023-11-21T12:57:01;13.73;;;5.97;;
71513;SDS011;59335;46.652;21.272;2023-11-21T13:00:07;12.75;;;5.82;;
71513;SDS011;59335;46.652;21.272;2023-11-21T13:03:16;13.60;;;6.10;;
71513;SDS011;59335;46.652;21.272;2023-11-21T13:06:22;13.73;;;6.23;;
71513;SDS011;59335;46.652;21.272;2023-11-21T13:09:27;13.52;;;6.88;;
71513;SDS011;59335;46.652;21.272;2023-11-21T13:12:31;11.88;;;5.90;;
71513;SDS011;59335;46.652;21.272;2023-11-21T13:15:39;16.02;;;5.63;;
71513;SDS011;59335;46.652;21.272;2023-11-21T13:18:52;12.32;;;6.07;;
71513;SDS011;59335;46.652;21.272;2023-11-21T13:21:56;13.43;;;5.80;;
71513;SDS011;59335;46.652;21.272;2023-11-21T13:25:00;14.98;;;6.57;;
71513;SDS011;59335;46.652;21.272;2023-11-21T13:28:09;14.85;;;6.25;;
71513;SDS011;59335;46.652;21.272;2023-11-21T13:31:13;15.60;;;6.50;;
71513;SDS011;59335;46.652;21.272;2023-11-21T13:34:29;14.50;;;6.00;;
71513;SDS011;59335;46.652;21.272;2023-11-21T13:37:35;14.10;;;6.30;;
71513;SDS011;59335;46.652;21.272;2023-11-21T13:40:40;16.38;;;7.05;;
71513;SDS011;59335;46.652;21.272;2023-11-21T13:43:47;13.05;;;6.80;;
71513;SDS011;59335;46.652;21.272;2023-11-21T13:46:55;15.85;;;6.95;;
71513;SDS011;59335;46.652;21.272;2023-11-21T13:50:01;15.02;;;7.20;;
71513;SDS011;59335;46.652;21.272;2023-11-21T13:53:03;16.17;;;6.70;;
71513;SDS011;59335;46.652;21.272;2023-11-21T13:56:18;13.68;;;6.57;;
71513;SDS011;59335;46.652;21.272;2023-11-21T13:59:30;14.55;;;6.45;;
71513;SDS011;59335;46.652;21.272;2023-11-21T14:02:34;13.82;;;6.43;;
71513;SDS011;59335;46.652;21.272;2023-11-21T14:05:42;13.32;;;6.43;;
71513;SDS011;59335;46.652;21.272;2023-11-21T14:08:48;13.03;;;6.87;;
71513;SDS011;59335;46.652;21.272;2023-11-21T14:11:52;14.90;;;7.22;;
71513;SDS011;59335;46.652;21.272;2023-11-21T14:14:56;15.48;;;6.47;;
71513;SDS011;59335;46.652;21.272;2023-11-21T14:17:59;13.48;;;6.15;;
71513;SDS011;59335;46.652;21.272;2023-11-21T14:21:09;14.15;;;6.95;;
71513;SDS011;59335;46.652;21.272;2023-11-21T14:24:13;14.17;;;6.83;;
71513;SDS011;59335;46.652;21.272;2023-11-21T14:27:21;16.02;;;7.15;;
71513;SDS011;59335;46.652;21.272;2023-11-21T14:30:25;13.85;;;6.78;;
71513;SDS011;59335;46.652;21.272;2023-11-21T14:33:32;18.02;;;7.22;;
71513;SDS011;59335;46.652;21.272;2023-11-21T14:36:37;15.65;;;6.65;;
71513;SDS011;59335;46.652;21.272;2023-11-21T14:39:41;13.70;;;6.67;;
71513;SDS011;59335;46.652;21.272;2023-11-21T14:42:48;20.52;;;7.32;;
71513;SDS011;59335;46.652;21.272;2023-11-21T14:45:51;17.23;;;7.25;;
71513;SDS011;59335;46.652;21.272;2023-11-21T14:48:53;13.77;;;6.28;;
71513;SDS011;59335;46.652;21.272;2023-11-21T14:52:19;14.32;;;6.35;;
71513;SDS011;59335;46.652;21.272;2023-11-21T14:55:36;20.53;;;7.57;;
71513;SDS011;59335;46.652;21.272;2023-11-21T14:58:56;14.00;;;6.68;;
71513;SDS011;59335;46.652;21.272;2023-11-21T15:01:59;15.77;;;6.90;;
71513;SDS011;59335;46.652;21.272;2023-11-21T15:05:15;14.13;;;6.72;;
71513;SDS011;59335;46.652;21.272;2023-11-21T15:08:19;13.90;;;6.43;;
71513;SDS011;59335;46.652;21.272;2023-11-21T15:11:34;18.47;;;7.30;;
71513;SDS011;59335;46.652;21.272;2023-11-21T15:14:40;21.30;;;6.80;;
71513;SDS011;59335;46.652;21.272;2023-11-21T15:17:43;19.25;;;6.60;;
71513;SDS011;59335;46.652;21.272;2023-11-21T15:20:46;17.77;;;7.00;;
71513;SDS011;59335;46.652;21.272;2023-11-21T15:23:49;18.80;;;6.88;;
71513;SDS011;59335;46.652;21.272;2023-11-21T15:26:53;17.40;;;6.97;;
71513;SDS011;59335;46.652;21.272;2023-11-21T15:29:55;16.88;;;7.07;;
71513;SDS011;59335;46.652;21.272;2023-11-21T15:32:58;22.83;;;7.05;;
71513;SDS011;59335;46.652;21.272;2023-11-21T15:36:01;16.65;;;7.20;;
71513;SDS011;59335;46.652;21.272;2023-11-21T15:39:06;18.48;;;6.80;;
71513;SDS011;59335;46.652;21.272;2023-11-21T15:42:12;22.27;;;7.43;;
71513;SDS011;59335;46.652;21.272;2023-11-21T15:45:14;18.35;;;6.80;;
71513;SDS011;59335;46.652;21.272;2023-11-21T15:48:21;18.05;;;6.60;;
71513;SDS011;59335;46.652;21.272;2023-11-21T15:51:23;21.77;;;7.43;;
71513;SDS011;59335;46.652;21.272;2023-11-21T15:54:26;17.17;;;6.70;;
71513;SDS011;59335;46.652;21.272;2023-11-21T15:57:30;23.30;;;7.87;;
71513;SDS011;59335;46.652;21.272;2023-11-21T16:00:33;20.38;;;8.18;;
71513;SDS011;59335;46.652;21.272;2023-11-21T16:03:36;18.17;;;6.55;;
71513;SDS011;59335;46.652;21.272;2023-11-21T16:06:39;16.33;;;7.47;;
71513;SDS011;59335;46.652;21.272;2023-11-21T16:09:44;19.70;;;7.18;;
71513;SDS011;59335;46.652;21.272;2023-11-21T16:12:46;22.23;;;7.67;;
71513;SDS011;59335;46.652;21.272;2023-11-21T16:15:49;23.02;;;7.20;;
71513;SDS011;59335;46.652;21.272;2023-11-21T16:18:56;18.88;;;6.90;;
71513;SDS011;59335;46.652;21.272;2023-11-21T16:21:59;16.95;;;7.22;;
71513;SDS011;59335;46.652;21.272;2023-11-21T16:25:03;19.05;;;7.05;;
71513;SDS011;59335;46.652;21.272;2023-11-21T16:28:07;17.37;;;6.57;;
71513;SDS011;59335;46.652;21.272;2023-11-21T16:31:10;23.63;;;7.65;;
71513;SDS011;59335;46.652;21.272;2023-11-21T16:34:16;20.67;;;7.28;;
71513;SDS011;59335;46.652;21.272;2023-11-21T16:37:22;17.98;;;7.00;;
71513;SDS011;59335;46.652;21.272;2023-11-21T16:40:25;15.57;;;6.63;;
71513;SDS011;59335;46.652;21.272;2023-11-21T16:43:28;18.40;;;7.03;;
71513;SDS011;59335;46.652;21.272;2023-11-21T16:46:31;18.15;;;6.90;;
71513;SDS011;59335;46.652;21.272;2023-11-21T16:49:35;13.73;;;6.60;;
71513;SDS011;59335;46.652;21.272;2023-11-21T16:52:40;15.13;;;6.82;;
71513;SDS011;59335;46.652;21.272;2023-11-21T16:55:44;16.75;;;6.13;;
71513;SDS011;59335;46.652;21.272;2023-11-21T16:58:50;15.33;;;6.87;;
71513;SDS011;59335;46.652;21.272;2023-11-21T17:01:53;18.17;;;7.60;;
71513;SDS011;59335;46.652;21.272;2023-11-21T17:04:56;16.05;;;6.78;;
71513;SDS011;59335;46.652;21.272;2023-11-21T17:08:00;19.33;;;7.30;;
71513;SDS011;59335;46.652;21.272;2023-11-21T17:11:03;15.95;;;7.05;;
71513;SDS011;59335;46.652;21.272;2023-11-21T17:14:10;16.53;;;7.20;;
71513;SDS011;59335;46.652;21.272;2023-11-21T17:17:13;19.90;;;7.40;;
71513;SDS011;59335;46.652;21.272;2023-11-21T17:20:17;14.82;;;7.07;;
71513;SDS011;59335;46.652;21.272;2023-11-21T17:23:21;20.27;;;7.53;;
71513;SDS011;59335;46.652;21.272;2023-11-21T17:26:24;16.75;;;7.25;;
71513;SDS011;59335;46.652;21.272;2023-11-21T17:29:27;15.57;;;7.33;;
71513;SDS011;59335;46.652;21.272;2023-11-21T17:32:29;15.52;;;7.18;;
71513;SDS011;59335;46.652;21.272;2023-11-21T17:35:33;17.95;;;7.60;;
71513;SDS011;59335;46.652;21.272;2023-11-21T17:38:37;18.17;;;7.13;;
71513;SDS011;59335;46.652;21.272;2023-11-21T17:41:40;14.60;;;6.90;;
71513;SDS011;59335;46.652;21.272;2023-11-21T17:44:44;18.40;;;7.23;;
71513;SDS011;59335;46.652;21.272;2023-11-21T17:47:47;15.98;;;7.40;;
71513;SDS011;59335;46.652;21.272;2023-11-21T17:50:50;17.08;;;6.80;;
71513;SDS011;59335;46.652;21.272;2023-11-21T17:53:53;15.23;;;6.70;;
71513;SDS011;59335;46.652;21.272;2023-11-21T17:57:03;14.13;;;6.45;;
71513;SDS011;59335;46.652;21.272;2023-11-21T18:00:06;16.93;;;7.20;;
71513;SDS011;59335;46.652;21.272;2023-11-21T18:03:11;13.25;;;6.90;;
71513;SDS011;59335;46.652;21.272;2023-11-21T18:06:14;14.38;;;6.80;;
71513;SDS011;59335;46.652;21.272;2023-11-21T18:09:17;14.85;;;6.80;;
71513;SDS011;59335;46.652;21.272;2023-11-21T18:12:21;17.08;;;6.82;;
71513;SDS011;59335;46.652;21.272;2023-11-21T18:15:24;15.23;;;6.90;;
71513;SDS011;59335;46.652;21.272;2023-11-21T18:18:27;15.35;;;6.85;;
71513;SDS011;59335;46.652;21.272;2023-11-21T18:21:30;14.65;;;7.20;;
71513;SDS011;59335;46.652;21.272;2023-11-21T18:24:33;14.45;;;7.32;;
71513;SDS011;59335;46.652;21.272;2023-11-21T18:27:37;12.93;;;6.40;;